Time;durP1;ratioP1;P1;durP2;ratioP2;P2;SDS_P1;SDS_P2;PMS_P1;PMS_P2;Temp;Humidity;BMP_temperature;BMP_pressure;BME280_temperature;BME280_humidity;BME280_pressure;Samples;Min_cycle;Max_cycle;Signal;HPM_P1;HPM_P2
2024/01/22 00:01:58;;;;;;;47.60;21.98;;;6.40;99.90;;;;;;5058831;28;20360;-75
2024/01/22 00:04:23;;;;;;;47.47;22.52;;;6.40;99.90;;;;;;5073804;28;20040;-75
2024/01/22 00:06:52;;;;;;;44.33;23.02;;;6.40;99.90;;;;;;5086155;28;20066;-75
2024/01/22 00:09:18;;;;;;;41.17;21.23;;;6.40;99.90;;;;;;5079801;28;20056;-76
2024/01/22 00:11:43;;;;;;;45.90;24.33;;;6.40;99.90;;;;;;5081808;28;20795;-76
2024/01/22 00:14:09;;;;;;;47.38;24.00;;;6.40;99.90;;;;;;5080390;28;20040;-76
2024/01/22 00:16:41;;;;;;;42.60;22.02;;;6.40;99.90;;;;;;5053007;28;20040;-76
2024/01/22 00:19:07;;;;;;;46.75;21.73;;;6.40;99.90;;;;;;5075573;28;20041;-76
2024/01/22 00:21:33;;;;;;;46.08;22.77;;;6.40;99.90;;;;;;5070085;28;20048;-76
2024/01/22 00:23:59;;;;;;;56.60;23.75;;;6.50;99.90;;;;;;5078403;28;20127;-76
2024/01/22 00:26:24;;;;;;;43.05;22.58;;;6.50;99.90;;;;;;5078097;28;20079;-76
2024/01/22 00:28:50;;;;;;;42.90;22.85;;;6.50;99.90;;;;;;5084352;28;20072;-76
2024/01/22 00:31:16;;;;;;;38.53;22.13;;;6.50;99.90;;;;;;5076794;28;20109;-76
2024/01/22 00:33:44;;;;;;;38.70;21.90;;;6.60;99.90;;;;;;5083216;28;20409;-76
2024/01/22 00:36:13;;;;;;;49.67;22.17;;;6.60;99.90;;;;;;5079387;28;20098;-76
2024/01/22 00:38:40;;;;;;;39.85;23.02;;;6.60;99.90;;;;;;5078280;28;20048;-77
2024/01/22 00:41:06;;;;;;;37.42;21.50;;;6.70;99.90;;;;;;5086440;28;20119;-76
2024/01/22 00:43:32;;;;;;;42.85;22.38;;;6.70;99.90;;;;;;5083367;28;20041;-76
2024/01/22 00:45:58;;;;;;;40.75;21.65;;;6.70;99.90;;;;;;5085120;28;20044;-76
2024/01/22 00:48:25;;;;;;;39.78;21.10;;;6.70;99.90;;;;;;5081004;28;20097;-76
2024/01/22 00:50:51;;;;;;;45.70;21.42;;;6.80;99.90;;;;;;5090027;28;20050;-76
2024/01/22 00:53:16;;;;;;;34.90;21.80;;;6.80;99.90;;;;;;5086259;28;20052;-76
2024/01/22 00:55:42;;;;;;;36.10;21.90;;;6.80;99.90;;;;;;5077112;28;20056;-76
2024/01/22 00:58:08;;;;;;;29.40;19.95;;;6.70;99.90;;;;;;5088699;28;20537;-76
2024/01/22 01:00:33;;;;;;;38.28;22.10;;;6.80;99.90;;;;;;5082533;28;20181;-76
2024/01/22 01:02:59;;;;;;;34.25;20.90;;;6.80;99.90;;;;;;5085886;28;20513;-76
2024/01/22 01:05:25;;;;;;;39.38;19.25;;;6.80;99.90;;;;;;5080995;28;20390;-76
2024/01/22 01:07:51;;;;;;;38.65;20.90;;;6.80;99.90;;;;;;5082526;28;20086;-76
2024/01/22 01:10:16;;;;;;;35.58;19.83;;;6.80;99.90;;;;;;5079996;28;20084;-76
2024/01/22 01:12:42;;;;;;;45.75;19.98;;;6.80;99.90;;;;;;5085675;28;20044;-76
2024/01/22 01:15:09;;;;;;;43.88;19.55;;;6.90;99.90;;;;;;5083304;28;20044;-76
2024/01/22 01:17:36;;;;;;;37.75;19.00;;;6.90;99.90;;;;;;5081106;28;20052;-76
2024/01/22 01:20:03;;;;;;;32.25;20.85;;;6.90;99.90;;;;;;5081417;28;20119;-76
2024/01/22 01:22:30;;;;;;;34.63;20.17;;;7.00;99.90;;;;;;5082988;28;20043;-76
2024/01/22 01:24:56;;;;;;;33.95;18.83;;;7.00;99.90;;;;;;5076624;28;20356;-76
2024/01/22 01:27:22;;;;;;;31.33;19.23;;;7.10;99.90;;;;;;5094339;28;20043;-76
2024/01/22 01:29:47;;;;;;;38.53;19.67;;;7.10;99.90;;;;;;5078078;28;20615;-76
2024/01/22 01:32:13;;;;;;;35.35;19.80;;;7.20;99.90;;;;;;5080174;28;20040;-76
2024/01/22 01:34:39;;;;;;;30.17;18.88;;;7.20;99.90;;;;;;5088706;28;20508;-76
2024/01/22 01:37:04;;;;;;;38.35;19.63;;;7.20;99.90;;;;;;5080485;28;20044;-76
2024/01/22 01:39:30;;;;;;;32.25;20.10;;;7.20;99.90;;;;;;5059644;28;20036;-76
2024/01/22 01:41:56;;;;;;;29.48;19.80;;;7.30;99.90;;;;;;5072452;28;20058;-77
2024/01/22 01:44:48;;;;;;;32.38;20.08;;;7.30;99.90;;;;;;5074832;28;20102;-77
2024/01/22 01:47:13;;;;;;;28.15;19.00;;;7.40;99.90;;;;;;5077351;28;20044;-77
2024/01/22 01:49:39;;;;;;;35.70;20.23;;;7.40;99.90;;;;;;5081346;28;20043;-77
2024/01/22 01:52:05;;;;;;;32.33;19.55;;;7.40;99.90;;;;;;5071032;28;20646;-77
2024/01/22 01:54:32;;;;;;;29.27;19.67;;;7.40;99.90;;;;;;5074862;28;20464;-77
2024/01/22 01:56:57;;;;;;;36.40;21.27;;;7.50;99.90;;;;;;5075492;28;20043;-77
2024/01/22 01:59:23;;;;;;;39.28;21.98;;;7.50;99.90;;;;;;5073097;28;20056;-77
2024/01/22 02:01:49;;;;;;;39.42;20.85;;;7.50;99.90;;;;;;5072407;28;20051;-77
2024/01/22 02:04:14;;;;;;;45.58;20.33;;;7.50;99.90;;;;;;5077085;28;20067;-77
2024/01/22 02:06:41;;;;;;;38.60;21.05;;;7.60;99.90;;;;;;5074326;28;20132;-76
2024/01/22 02:09:07;;;;;;;40.90;22.27;;;7.60;99.90;;;;;;5077729;28;20079;-76
2024/01/22 02:11:32;;;;;;;33.33;20.70;;;7.60;99.90;;;;;;5082764;28;20471;-76
2024/01/22 02:13:58;;;;;;;38.92;20.92;;;7.60;99.90;;;;;;5070065;28;20052;-76
2024/01/22 02:16:23;;;;;;;35.40;21.40;;;7.60;99.90;;;;;;5074456;28;20047;-77
2024/01/22 02:18:49;;;;;;;38.10;21.30;;;7.60;99.90;;;;;;5067991;28;20059;-76
2024/01/22 02:21:15;;;;;;;33.67;20.85;;;7.60;99.90;;;;;;5069882;28;20129;-76
2024/01/22 02:23:40;;;;;;;41.05;21.10;;;7.60;99.90;;;;;;5073888;28;20501;-77
2024/01/22 02:26:06;;;;;;;40.45;21.55;;;7.60;99.90;;;;;;5078951;28;20093;-77
2024/01/22 02:28:32;;;;;;;33.30;21.42;;;7.60;99.90;;;;;;5073657;28;20048;-77
2024/01/22 02:30:58;;;;;;;38.22;21.52;;;7.60;99.90;;;;;;5079893;28;20466;-77
2024/01/22 02:33:24;;;;;;;37.72;20.05;;;7.70;99.90;;;;;;5071071;28;20135;-77
2024/01/22 02:35:49;;;;;;;38.80;21.25;;;7.60;99.90;;;;;;5073265;28;20051;-76
2024/01/22 02:38:15;;;;;;;38.80;21.05;;;7.60;99.90;;;;;;5075969;28;20048;-77
2024/01/22 02:40:41;;;;;;;43.22;20.80;;;7.70;99.90;;;;;;5074258;28;20047;-76
2024/01/22 02:43:06;;;;;;;36.45;20.58;;;7.70;99.90;;;;;;5071160;28;20052;-76
2024/01/22 02:45:32;;;;;;;35.40;21.00;;;7.70;99.90;;;;;;5075117;28;20187;-76
2024/01/22 02:47:58;;;;;;;33.35;19.15;;;7.70;99.90;;;;;;5074288;28;20452;-77
2024/01/22 02:50:23;;;;;;;33.05;20.45;;;7.70;99.90;;;;;;5083287;28;20202;-76
2024/01/22 02:52:49;;;;;;;30.13;21.23;;;7.70;99.90;;;;;;5079571;28;20058;-77
2024/01/22 02:55:15;;;;;;;44.38;20.85;;;7.70;99.90;;;;;;5067836;28;20127;-76
2024/01/22 02:57:40;;;;;;;29.02;19.70;;;7.70;99.90;;;;;;5077724;28;20032;-76
2024/01/22 03:00:06;;;;;;;30.27;18.55;;;7.70;99.90;;;;;;5075393;28;20116;-76
2024/01/22 03:02:32;;;;;;;29.35;19.42;;;7.70;99.90;;;;;;5085134;28;20054;-75
2024/01/22 03:04:58;;;;;;;38.95;20.55;;;7.80;99.90;;;;;;5081910;28;20048;-76
2024/01/22 03:07:23;;;;;;;35.83;19.23;;;7.70;99.90;;;;;;5087567;28;20044;-75
2024/01/22 03:09:49;;;;;;;35.90;17.95;;;7.80;99.90;;;;;;5080926;28;20080;-76
2024/01/22 03:12:14;;;;;;;33.95;19.27;;;7.80;99.90;;;;;;5080113;28;20492;-77
2024/01/22 03:14:40;;;;;;;29.45;18.83;;;7.80;99.90;;;;;;5076022;28;20048;-76
2024/01/22 03:17:06;;;;;;;31.50;19.15;;;7.80;99.90;;;;;;5072902;28;20093;-76
2024/01/22 03:19:31;;;;;;;35.03;19.67;;;7.90;99.90;;;;;;5085931;28;20134;-76
2024/01/22 03:21:57;;;;;;;27.98;19.33;;;7.90;99.90;;;;;;5077546;28;20989;-75
2024/01/22 03:24:23;;;;;;;31.35;18.10;;;7.90;99.90;;;;;;5071600;28;20044;-75
2024/01/22 03:26:48;;;;;;;30.83;18.45;;;7.90;99.90;;;;;;5073008;28;21083;-76
2024/01/22 03:29:14;;;;;;;27.67;17.55;;;7.90;99.90;;;;;;5072755;28;20477;-76
2024/01/22 03:31:39;;;;;;;31.15;18.25;;;7.90;99.90;;;;;;5075213;28;20063;-75
2024/01/22 03:34:05;;;;;;;24.30;16.73;;;7.90;99.90;;;;;;5074094;28;20178;-75
2024/01/22 03:36:31;;;;;;;25.17;18.17;;;8.00;99.90;;;;;;5072986;28;20076;-75
2024/01/22 03:38:57;;;;;;;28.63;18.05;;;8.00;99.90;;;;;;5066066;28;20036;-76
2024/01/22 03:41:22;;;;;;;29.35;18.05;;;8.00;99.90;;;;;;5073494;28;20082;-75
2024/01/22 03:43:48;;;;;;;22.92;16.58;;;8.00;99.90;;;;;;5073638;28;20070;-76
2024/01/22 03:46:15;;;;;;;24.90;17.52;;;8.00;99.90;;;;;;5083238;28;20071;-75
2024/01/22 03:48:41;;;;;;;27.85;16.45;;;8.00;99.90;;;;;;5085509;28;20512;-75
2024/01/22 03:51:07;;;;;;;23.50;16.33;;;8.10;99.90;;;;;;5076350;28;20490;-76
2024/01/22 03:53:32;;;;;;;23.63;17.35;;;8.10;99.90;;;;;;5070608;28;20049;-75
2024/01/22 03:55:58;;;;;;;25.85;16.90;;;8.10;99.90;;;;;;5067110;28;20052;-76
2024/01/22 03:58:24;;;;;;;31.02;17.45;;;8.10;99.90;;;;;;5070248;28;20045;-76
2024/01/22 04:00:49;;;;;;;26.55;16.63;;;8.10;99.90;;;;;;5070382;28;20379;-76
2024/01/22 04:03:15;;;;;;;26.00;16.48;;;8.10;99.90;;;;;;5075362;28;20041;-76
2024/01/22 04:05:42;;;;;;;24.17;16.63;;;8.10;99.90;;;;;;5073747;28;20111;-76
2024/01/22 04:08:08;;;;;;;31.25;16.25;;;8.10;99.90;;;;;;5085282;28;20047;-76
2024/01/22 04:10:34;;;;;;;24.27;15.82;;;8.10;99.90;;;;;;5083515;28;20044;-76
2024/01/22 04:13:00;;;;;;;30.00;16.95;;;8.20;99.90;;;;;;5073685;28;20127;-76
2024/01/22 04:15:25;;;;;;;27.25;15.98;;;8.20;99.90;;;;;;5075355;28;20136;-76
2024/01/22 04:17:52;;;;;;;22.63;15.63;;;8.20;99.90;;;;;;5068644;28;20098;-76
2024/01/22 04:20:18;;;;;;;24.65;15.48;;;8.20;99.90;;;;;;5076622;28;20109;-76
2024/01/22 04:22:43;;;;;;;23.05;15.90;;;8.20;99.90;;;;;;5081829;28;20047;-76
2024/01/22 04:25:09;;;;;;;23.52;16.55;;;8.20;99.90;;;;;;5072980;28;20048;-76
2024/01/22 04:27:35;;;;;;;22.33;14.73;;;8.30;99.90;;;;;;5061415;28;20045;-76
2024/01/22 04:30:01;;;;;;;25.42;14.77;;;8.30;99.90;;;;;;5072589;28;20044;-76
2024/01/22 04:32:26;;;;;;;21.92;15.25;;;8.30;99.90;;;;;;5088234;28;20040;-76
2024/01/22 04:34:52;;;;;;;20.15;14.65;;;8.30;99.90;;;;;;5080471;28;20071;-76
2024/01/22 04:37:18;;;;;;;25.00;14.75;;;8.40;99.90;;;;;;5082725;28;20094;-77
2024/01/22 04:39:43;;;;;;;19.63;14.05;;;8.40;99.90;;;;;;5091434;28;20481;-76
2024/01/22 04:42:17;;;;;;;21.40;14.43;;;8.40;99.90;;;;;;5086222;28;20451;-76
2024/01/22 04:44:43;;;;;;;19.85;13.77;;;8.40;99.90;;;;;;5078963;28;20055;-75
2024/01/22 04:47:09;;;;;;;19.20;14.00;;;8.40;99.90;;;;;;5073669;28;20066;-76
2024/01/22 04:49:34;;;;;;;23.85;14.02;;;8.50;99.90;;;;;;5088228;28;20518;-76
2024/01/22 04:52:00;;;;;;;18.40;13.52;;;8.50;99.90;;;;;;5088727;28;20040;-76
2024/01/22 04:54:25;;;;;;;17.88;12.07;;;8.50;99.90;;;;;;5079113;28;20136;-76
2024/01/22 04:56:52;;;;;;;21.92;14.38;;;8.50;99.90;;;;;;5084755;28;20083;-76
2024/01/22 04:59:18;;;;;;;18.70;13.93;;;8.50;99.90;;;;;;5082093;28;20437;-76
2024/01/22 05:01:43;;;;;;;16.73;12.70;;;8.60;99.90;;;;;;5085149;28;20159;-76
2024/01/22 05:04:09;;;;;;;23.33;14.20;;;8.60;99.90;;;;;;5084586;28;20043;-76
2024/01/22 05:06:35;;;;;;;22.15;14.13;;;8.60;99.90;;;;;;5071331;28;20071;-76
2024/01/22 05:09:00;;;;;;;26.17;14.68;;;8.60;99.90;;;;;;5084620;28;20052;-76
2024/01/22 05:11:26;;;;;;;20.10;13.85;;;8.60;99.90;;;;;;5072547;28;20121;-76
2024/01/22 05:13:53;;;;;;;17.75;12.23;;;8.60;99.90;;;;;;5078953;28;20090;-76
2024/01/22 05:16:20;;;;;;;17.63;12.48;;;8.60;99.90;;;;;;5072751;28;20048;-76
2024/01/22 05:18:47;;;;;;;26.08;12.68;;;8.70;99.90;;;;;;5073033;28;20097;-77
2024/01/22 05:21:13;;;;;;;18.73;12.23;;;8.70;99.90;;;;;;5077809;28;20048;-76
2024/01/22 05:23:40;;;;;;;16.48;11.90;;;8.70;99.90;;;;;;5080508;28;20066;-76
2024/01/22 05:26:06;;;;;;;14.98;12.60;;;8.70;99.90;;;;;;5075860;28;20032;-76
2024/01/22 05:28:32;;;;;;;16.08;11.60;;;8.80;99.90;;;;;;5071397;28;20456;-76
2024/01/22 05:30:58;;;;;;;13.02;11.48;;;8.80;99.90;;;;;;5070866;28;20052;-77
2024/01/22 05:33:24;;;;;;;16.23;12.60;;;8.90;99.90;;;;;;5071871;28;20127;-76
2024/01/22 05:35:49;;;;;;;13.05;11.65;;;8.90;99.90;;;;;;5067725;28;20136;-76
2024/01/22 05:38:15;;;;;;;14.45;12.20;;;9.00;99.90;;;;;;5050630;28;20080;-76
2024/01/22 05:40:41;;;;;;;12.90;11.25;;;9.00;99.90;;;;;;5069242;28;20040;-76
2024/01/22 05:43:06;;;;;;;13.88;11.00;;;9.10;99.90;;;;;;5074347;28;20043;-76
2024/01/22 05:45:32;;;;;;;19.15;11.60;;;9.10;99.90;;;;;;5070444;28;20052;-76
2024/01/22 05:47:57;;;;;;;12.73;11.43;;;9.10;99.90;;;;;;5077507;28;20186;-77
2024/01/22 05:50:23;;;;;;;17.17;12.38;;;9.10;99.90;;;;;;5075266;28;20044;-76
2024/01/22 05:52:49;;;;;;;16.15;10.68;;;9.10;99.90;;;;;;5076852;28;20065;-76
2024/01/22 05:55:15;;;;;;;15.25;11.60;;;9.20;99.90;;;;;;5076027;28;20135;-76
2024/01/22 05:57:41;;;;;;;14.82;10.43;;;9.30;99.90;;;;;;5077928;28;20119;-76
2024/01/22 06:00:13;;;;;;;13.50;10.32;;;9.30;99.90;;;;;;5056317;28;20052;-76
2024/01/22 06:02:39;;;;;;;13.55;9.45;;;9.30;99.90;;;;;;5075051;28;20502;-76
2024/01/22 06:05:06;;;;;;;12.25;9.77;;;9.30;99.90;;;;;;5073051;28;20097;-75
2024/01/22 06:07:32;;;;;;;12.07;8.85;;;9.30;99.90;;;;;;5070877;28;20051;-76
2024/01/22 06:09:58;;;;;;;19.75;8.80;;;9.30;99.90;;;;;;5074766;28;20124;-76
2024/01/22 06:12:25;;;;;;;11.40;8.80;;;9.30;99.90;;;;;;5080462;28;20058;-76
2024/01/22 06:14:51;;;;;;;15.20;9.13;;;9.40;99.90;;;;;;5072612;28;20048;-76
2024/01/22 06:17:16;;;;;;;15.90;7.88;;;9.40;99.90;;;;;;5084896;28;20048;-76
2024/01/22 06:19:42;;;;;;;10.02;8.25;;;9.50;99.90;;;;;;5070765;28;20043;-76
2024/01/22 06:22:07;;;;;;;10.27;8.25;;;9.50;99.90;;;;;;5069169;28;20048;-76
2024/01/22 06:24:35;;;;;;;9.38;8.18;;;9.50;99.90;;;;;;5079523;28;20044;-76
2024/01/22 06:27:01;;;;;;;16.80;9.20;;;9.60;99.90;;;;;;5089226;28;20093;-76
2024/01/22 06:29:26;;;;;;;14.52;8.40;;;9.60;99.90;;;;;;5080050;28;20116;-76
2024/01/22 06:31:52;;;;;;;8.55;7.65;;;9.60;99.90;;;;;;5066951;28;20052;-76
2024/01/22 06:34:18;;;;;;;12.45;8.23;;;9.60;99.90;;;;;;5072131;28;20044;-76
2024/01/22 06:36:43;;;;;;;18.65;8.77;;;9.70;99.90;;;;;;5077387;28;20098;-76
2024/01/22 06:39:09;;;;;;;10.18;7.97;;;9.70;99.90;;;;;;5082262;28;20040;-76
2024/01/22 06:41:35;;;;;;;12.55;7.60;;;9.70;99.90;;;;;;5071776;28;20085;-77
2024/01/22 06:44:01;;;;;;;12.32;7.30;;;9.80;99.90;;;;;;5076008;28;20072;-77
2024/01/22 06:46:26;;;;;;;13.98;9.13;;;9.80;99.90;;;;;;5071692;28;20068;-76
2024/01/22 06:48:52;;;;;;;13.63;7.82;;;9.90;99.90;;;;;;5073159;28;20501;-76
2024/01/22 06:51:17;;;;;;;11.82;7.55;;;9.80;99.90;;;;;;5069843;28;20096;-76
2024/01/22 06:53:43;;;;;;;10.85;7.15;;;9.80;99.90;;;;;;5079657;28;20051;-77
2024/01/22 06:56:09;;;;;;;13.60;7.28;;;9.80;99.90;;;;;;5080055;28;20464;-76
2024/01/22 06:58:35;;;;;;;8.52;6.40;;;9.80;99.90;;;;;;5074753;28;20083;-76
2024/01/22 07:01:01;;;;;;;19.23;5.78;;;9.90;99.90;;;;;;5080520;28;20047;-76
2024/01/22 07:03:27;;;;;;;12.23;5.75;;;10.00;99.90;;;;;;5078139;28;20048;-76
2024/01/22 07:05:52;;;;;;;14.05;6.85;;;10.00;99.90;;;;;;5069985;28;20049;-76
2024/01/22 07:08:18;;;;;;;20.90;8.13;;;10.00;99.90;;;;;;5066183;28;20055;-76
2024/01/22 07:10:44;;;;;;;23.23;6.72;;;10.10;99.90;;;;;;5071717;28;20076;-76
2024/01/22 07:13:10;;;;;;;26.88;9.02;;;10.20;99.90;;;;;;5075591;28;20549;-76
2024/01/22 07:15:36;;;;;;;27.10;8.95;;;10.20;99.90;;;;;;5050494;28;20048;-76
2024/01/22 07:18:02;;;;;;;36.80;10.50;;;10.20;99.90;;;;;;5071820;28;20383;-76
2024/01/22 07:20:28;;;;;;;37.22;11.57;;;10.20;99.90;;;;;;5070560;28;20083;-76
2024/01/22 07:22:54;;;;;;;42.15;11.02;;;10.30;99.90;;;;;;5080380;28;20127;-76
2024/01/22 07:25:19;;;;;;;40.15;11.63;;;10.30;99.90;;;;;;5067071;28;20091;-77
2024/01/22 07:27:45;;;;;;;32.58;10.40;;;10.30;99.90;;;;;;5069433;28;20423;-76
2024/01/22 07:30:12;;;;;;;40.60;12.73;;;10.30;99.90;;;;;;5067638;28;20579;-76
2024/01/22 07:32:40;;;;;;;37.75;11.63;;;10.30;99.90;;;;;;5074724;28;20048;-76
2024/01/22 07:35:07;;;;;;;40.53;11.13;;;10.30;99.90;;;;;;5067741;28;20057;-76
2024/01/22 07:37:34;;;;;;;39.03;11.38;;;10.30;99.90;;;;;;5076982;28;20317;-77
2024/01/22 07:40:01;;;;;;;43.87;12.60;;;10.30;99.90;;;;;;5074498;28;20504;-77
2024/01/22 07:42:26;;;;;;;37.70;11.80;;;10.30;99.90;;;;;;5070854;28;20052;-77
2024/01/22 07:44:52;;;;;;;54.13;13.15;;;10.20;99.90;;;;;;5077220;28;20397;-76
2024/01/22 07:47:17;;;;;;;50.50;12.80;;;10.20;99.90;;;;;;5069193;28;20275;-76
2024/01/22 07:49:43;;;;;;;60.50;13.07;;;10.20;99.90;;;;;;5086977;28;20044;-76
2024/01/22 07:52:08;;;;;;;45.38;12.43;;;10.20;99.90;;;;;;5076076;28;20494;-76
2024/01/22 07:54:34;;;;;;;58.40;13.45;;;10.20;99.90;;;;;;5075618;28;20048;-77
2024/01/22 07:57:00;;;;;;;61.90;14.68;;;10.20;99.90;;;;;;5080919;28;20048;-77
2024/01/22 07:59:26;;;;;;;65.40;14.55;;;10.20;99.90;;;;;;5078895;28;20052;-76
2024/01/22 08:01:52;;;;;;;51.40;12.90;;;10.20;99.90;;;;;;5076438;28;20131;-76
2024/01/22 08:04:18;;;;;;;62.47;13.48;;;10.10;99.90;;;;;;5077987;28;20111;-77
2024/01/22 08:06:44;;;;;;;46.40;13.48;;;10.20;99.90;;;;;;5057993;28;20051;-76
2024/01/22 08:09:11;;;;;;;51.55;14.48;;;10.20;99.90;;;;;;5086949;28;20056;-77
2024/01/22 08:11:39;;;;;;;65.22;14.85;;;10.30;99.90;;;;;;5076306;28;20044;-77
2024/01/22 08:14:05;;;;;;;48.83;14.73;;;10.30;99.90;;;;;;5084653;28;20052;-81
2024/01/22 08:16:30;;;;;;;56.85;14.07;;;10.30;99.90;;;;;;5075043;28;20048;-76
2024/01/22 08:18:56;;;;;;;47.90;13.45;;;10.20;99.90;;;;;;5085631;28;20103;-76
2024/01/22 08:21:23;;;;;;;64.80;13.80;;;10.30;99.90;;;;;;5080841;28;20148;-76
2024/01/22 08:23:48;;;;;;;35.35;12.85;;;10.30;99.90;;;;;;5073160;28;20067;-76
2024/01/22 08:26:14;;;;;;;58.25;12.75;;;10.30;99.90;;;;;;5076109;28;20048;-77
2024/01/22 08:28:39;;;;;;;40.97;12.73;;;10.30;99.90;;;;;;5083229;28;20037;-77
2024/01/22 08:31:05;;;;;;;53.13;13.40;;;10.30;99.90;;;;;;5073564;28;20072;-77
2024/01/22 08:33:31;;;;;;;45.85;12.25;;;10.20;99.90;;;;;;5071686;28;20127;-76
2024/01/22 08:35:57;;;;;;;55.03;13.50;;;10.30;99.90;;;;;;5072744;28;20147;-76
2024/01/22 08:38:22;;;;;;;43.25;12.88;;;10.30;99.90;;;;;;5076812;28;20052;-76
2024/01/22 08:40:48;;;;;;;40.20;13.93;;;10.30;99.90;;;;;;5080900;28;20052;-76
2024/01/22 08:43:14;;;;;;;48.42;12.70;;;10.30;99.90;;;;;;5070624;28;20052;-76
2024/01/22 08:45:40;;;;;;;63.22;13.93;;;10.30;99.90;;;;;;5075437;28;20039;-76
2024/01/22 08:48:06;;;;;;;38.65;12.40;;;10.20;99.90;;;;;;5072393;28;20048;-76
2024/01/22 08:50:32;;;;;;;46.80;13.38;;;10.30;99.90;;;;;;5072356;28;20379;-77
2024/01/22 08:52:58;;;;;;;45.28;13.75;;;10.30;99.90;;;;;;5074953;28;20056;-77
2024/01/22 08:55:24;;;;;;;51.90;11.38;;;10.20;99.90;;;;;;5079578;28;20057;-77
2024/01/22 08:57:50;;;;;;;38.97;10.52;;;10.20;99.90;;;;;;5073605;28;20408;-79
2024/01/22 09:00:16;;;;;;;34.78;9.50;;;10.20;99.90;;;;;;5082350;28;20049;-79
2024/01/22 09:02:42;;;;;;;31.83;8.77;;;10.20;99.90;;;;;;5082600;28;20044;-79
2024/01/22 09:05:09;;;;;;;39.25;10.85;;;10.20;99.90;;;;;;5076480;28;20036;-78
2024/01/22 09:07:36;;;;;;;39.58;10.77;;;10.20;99.90;;;;;;5073760;28;20045;-77
2024/01/22 09:10:07;;;;;;;51.10;11.65;;;10.10;99.90;;;;;;5070439;28;20168;-77
2024/01/22 09:12:36;;;;;;;45.35;11.02;;;10.10;99.90;;;;;;5070787;28;20062;-77
2024/01/22 09:15:03;;;;;;;59.85;12.68;;;10.10;99.90;;;;;;5068838;28;20109;-76
2024/01/22 09:17:30;;;;;;;69.70;13.38;;;10.00;99.90;;;;;;5077446;28;20044;-76
2024/01/22 09:19:57;;;;;;;72.53;13.85;;;10.00;99.90;;;;;;5070881;28;20052;-76
2024/01/22 09:22:23;;;;;;;85.55;17.52;;;10.00;99.90;;;;;;5070461;28;20688;-76
2024/01/22 09:24:49;;;;;;;82.75;16.15;;;10.00;99.90;;;;;;5075031;28;20040;-77
2024/01/22 09:27:15;;;;;;;79.53;17.35;;;10.00;99.90;;;;;;5079657;28;20036;-76
2024/01/22 09:29:41;;;;;;;86.97;17.08;;;10.00;99.90;;;;;;5084281;28;20044;-82
2024/01/22 09:32:10;;;;;;;80.60;18.23;;;10.00;99.90;;;;;;5079180;28;20128;-75
2024/01/22 09:34:37;;;;;;;91.70;18.02;;;9.90;99.90;;;;;;5070251;28;20040;-75
2024/01/22 09:37:04;;;;;;;86.20;19.10;;;9.90;99.90;;;;;;5069141;28;20055;-75
2024/01/22 09:39:30;;;;;;;88.68;18.75;;;9.90;99.90;;;;;;5072742;28;20528;-75
2024/01/22 09:41:57;;;;;;;85.32;19.08;;;9.90;99.90;;;;;;5075101;28;20056;-75
2024/01/22 09:44:24;;;;;;;117.82;20.58;;;9.90;99.90;;;;;;5085832;28;20163;-75
2024/01/22 09:46:50;;;;;;;107.45;19.92;;;9.80;99.90;;;;;;5068933;28;20323;-74
2024/01/22 09:49:16;;;;;;;102.78;19.90;;;9.90;99.90;;;;;;5078539;28;20051;-75
2024/01/22 09:51:44;;;;;;;104.22;21.80;;;9.90;99.90;;;;;;5081773;28;21001;-75
2024/01/22 09:54:15;;;;;;;102.40;20.27;;;9.90;99.90;;;;;;5069761;28;20494;-75
2024/01/22 09:56:55;;;;;;;84.95;18.77;;;9.90;99.90;;;;;;5071846;28;20048;-75
2024/01/22 09:59:22;;;;;;;85.05;17.92;;;9.90;99.90;;;;;;5073191;28;20048;-75
2024/01/22 10:01:49;;;;;;;87.53;20.88;;;9.90;99.90;;;;;;5078822;28;20062;-75
2024/01/22 10:04:15;;;;;;;126.18;20.60;;;9.90;99.90;;;;;;5085111;28;20051;-75
2024/01/22 10:06:42;;;;;;;114.97;20.40;;;9.90;99.90;;;;;;5089197;28;20124;-75
2024/01/22 10:09:08;;;;;;;83.93;20.38;;;9.90;99.90;;;;;;5081213;28;20086;-75
2024/01/22 10:11:34;;;;;;;126.65;21.73;;;9.80;99.90;;;;;;5082897;28;20044;-75
2024/01/22 10:14:00;;;;;;;108.63;22.73;;;9.80;99.90;;;;;;5086375;28;20048;-75
2024/01/22 10:16:26;;;;;;;100.82;20.60;;;9.80;99.90;;;;;;5083648;28;20117;-75
2024/01/22 10:19:00;;;;;;;116.30;23.25;;;9.80;99.90;;;;;;5085682;28;20119;-75
2024/01/22 10:21:26;;;;;;;102.72;21.05;;;9.80;99.90;;;;;;5070520;28;20094;-75
2024/01/22 10:24:00;;;;;;;113.47;23.85;;;9.80;99.90;;;;;;5075332;28;20044;-75
2024/01/22 10:26:26;;;;;;;106.35;22.48;;;9.80;99.90;;;;;;5085323;28;20488;-75
2024/01/22 10:28:52;;;;;;;118.43;22.52;;;9.70;99.90;;;;;;5078525;28;20036;-75
2024/01/22 10:31:18;;;;;;;122.78;22.63;;;9.70;99.90;;;;;;5072289;28;20615;-75
2024/01/22 10:33:45;;;;;;;148.73;26.77;;;9.80;99.90;;;;;;5075318;28;20067;-74
2024/01/22 10:36:16;;;;;;;145.80;27.00;;;9.70;99.90;;;;;;5077161;28;20055;-76
2024/01/22 10:38:43;;;;;;;123.13;24.40;;;9.80;99.90;;;;;;5079401;28;20066;-75
2024/01/22 10:41:19;;;;;;;145.07;26.90;;;9.80;99.90;;;;;;5068014;28;20053;-77
2024/01/22 10:43:45;;;;;;;123.55;24.58;;;9.90;99.90;;;;;;5078994;28;20074;-75
2024/01/22 10:46:12;;;;;;;103.68;24.90;;;9.90;99.90;;;;;;5067981;28;20193;-75
2024/01/22 10:48:38;;;;;;;132.55;26.52;;;10.00;99.90;;;;;;5078278;28;20048;-75
2024/01/22 10:51:05;;;;;;;115.85;23.77;;;10.00;99.90;;;;;;5073870;28;20473;-75
2024/01/22 10:53:35;;;;;;;141.02;28.10;;;10.00;99.90;;;;;;5077483;28;20064;-75
2024/01/22 10:56:11;;;;;;;113.57;23.45;;;9.90;99.90;;;;;;5069259;28;20052;-75
2024/01/22 10:58:45;;;;;;;134.85;26.23;;;9.90;99.90;;;;;;5072968;28;20059;-76
2024/01/22 11:01:23;;;;;;;120.50;26.45;;;9.90;99.90;;;;;;5072863;28;20044;-75
2024/01/22 11:03:50;;;;;;;119.55;23.70;;;9.80;99.90;;;;;;5075241;28;20079;-75
2024/01/22 11:06:19;;;;;;;135.27;23.05;;;9.80;99.90;;;;;;5068007;28;20052;-75
2024/01/22 11:08:53;;;;;;;105.85;23.77;;;9.80;99.90;;;;;;5082007;28;20067;-75
2024/01/22 11:11:28;;;;;;;120.88;23.40;;;9.80;99.90;;;;;;5079337;28;20040;-75
2024/01/22 11:13:56;;;;;;;156.93;27.40;;;9.70;99.90;;;;;;5078464;28;20055;-75
2024/01/22 11:16:22;;;;;;;118.13;24.60;;;9.70;99.90;;;;;;5074924;28;20110;-75
2024/01/22 11:19:02;;;;;;;128.25;26.67;;;9.70;99.90;;;;;;5079294;28;20075;-75
2024/01/22 11:21:39;;;;;;;121.22;23.15;;;9.80;99.90;;;;;;5068289;28;20501;-75
2024/01/22 11:24:15;;;;;;;127.25;25.38;;;9.80;99.90;;;;;;5063362;28;20428;-75
2024/01/22 11:26:51;;;;;;;106.25;21.08;;;9.90;99.90;;;;;;5074546;28;20458;-75
2024/01/22 11:29:22;;;;;;;107.30;22.05;;;10.00;99.90;;;;;;5069663;28;20124;-75
2024/01/22 11:31:48;;;;;;;94.97;20.13;;;10.00;99.90;;;;;;5068818;28;20080;-75
2024/01/22 11:34:34;;;;;;;92.68;22.13;;;10.10;99.90;;;;;;5074994;28;20059;-74
2024/01/22 11:37:00;;;;;;;98.43;20.25;;;10.20;99.90;;;;;;5088756;28;20077;-75
2024/01/22 11:39:43;;;;;;;91.65;19.85;;;10.20;99.90;;;;;;5073560;28;20529;-75
2024/01/22 11:42:18;;;;;;;113.68;21.02;;;10.30;99.90;;;;;;5083402;28;20055;-75
2024/01/22 11:44:53;;;;;;;108.38;20.23;;;10.40;99.90;;;;;;5083361;28;20526;-74
2024/01/22 11:47:21;;;;;;;100.65;19.58;;;10.40;99.90;;;;;;5082537;28;20066;-74
2024/01/22 11:49:47;;;;;;;103.20;22.38;;;10.50;99.90;;;;;;5076592;28;20051;-75
2024/01/22 11:52:16;;;;;;;130.45;22.33;;;10.50;99.90;;;;;;5085005;28;20037;-74
2024/01/22 11:54:52;;;;;;;107.82;22.17;;;10.60;99.90;;;;;;5084692;28;20086;-75
2024/01/22 11:57:18;;;;;;;117.90;22.25;;;10.70;99.90;;;;;;5077066;28;20087;-75
2024/01/22 12:00:05;;;;;;;99.10;20.60;;;10.70;99.90;;;;;;5083805;28;20036;-74
2024/01/22 12:02:34;;;;;;;96.63;21.30;;;10.80;99.90;;;;;;5075243;28;20060;-74
2024/01/22 12:05:06;;;;;;;99.60;20.13;;;10.80;99.90;;;;;;5056025;28;20052;-74
2024/01/22 12:07:40;;;;;;;104.22;20.30;;;10.80;99.90;;;;;;5082073;28;20032;-74
2024/01/22 12:10:20;;;;;;;100.68;19.40;;;10.80;99.90;;;;;;5076491;28;20453;-74
2024/01/22 12:12:59;;;;;;;103.95;21.17;;;10.80;99.90;;;;;;5069129;28;20048;-75
2024/01/22 12:15:27;;;;;;;99.43;19.98;;;10.70;99.90;;;;;;5066356;28;20470;-75
2024/01/22 12:17:53;;;;;;;96.90;16.95;;;10.70;99.90;;;;;;5074638;28;20049;-75
2024/01/22 12:20:20;;;;;;;82.45;18.50;;;10.70;99.90;;;;;;5081251;28;20043;-74
2024/01/22 12:22:54;;;;;;;86.72;17.42;;;10.60;99.90;;;;;;5071929;28;20052;-74
2024/01/22 12:25:20;;;;;;;82.70;16.33;;;10.60;99.90;;;;;;5066154;28;20088;-74
2024/01/22 12:27:47;;;;;;;83.63;16.52;;;10.60;99.90;;;;;;5072724;28;20083;-74
2024/01/22 12:30:17;;;;;;;75.03;16.20;;;10.60;99.90;;;;;;5078760;28;20040;-74
2024/01/22 12:32:53;;;;;;;58.72;13.90;;;10.60;99.90;;;;;;5073338;28;20059;-74